Time;durP1;ratioP1;P1;durP2;ratioP2;P2;SDS_P1;SDS_P2;PMS_P1;PMS_P2;Temp;Humidity;BMP_temperature;BMP_pressure;BME280_temperature;BME280_humidity;BME280_pressure;Samples;Min_cycle;Max_cycle;Signal;HPM_P1;HPM_P2
2021/04/30 00:02:10;;;;;;;5.57;4.57;;;14.70;99.90;;;;;;4896961;29;20029;-78
2021/04/30 00:04:35;;;;;;;4.32;3.92;;;14.80;99.90;;;;;;4881566;29;20044;-78
2021/04/30 00:07:01;;;;;;;6.15;3.97;;;14.80;99.90;;;;;;4900545;29;20031;-78
2021/04/30 00:09:27;;;;;;;4.55;3.90;;;14.80;99.90;;;;;;4900514;29;20105;-78
2021/04/30 00:11:52;;;;;;;4.03;3.72;;;14.70;99.90;;;;;;4883877;29;20043;-78
2021/04/30 00:14:18;;;;;;;5.93;3.30;;;14.70;99.90;;;;;;4902807;29;20032;-78
2021/04/30 00:16:45;;;;;;;3.58;3.28;;;14.70;99.90;;;;;;4902425;29;20032;-78
2021/04/30 00:19:10;;;;;;;4.30;3.90;;;14.70;99.90;;;;;;4902267;29;20149;-78
2021/04/30 00:21:39;;;;;;;3.67;3.40;;;14.60;99.90;;;;;;4919394;29;20507;-78
2021/04/30 00:24:10;;;;;;;3.83;3.47;;;14.70;99.90;;;;;;4919137;29;20060;-78
2021/04/30 00:26:35;;;;;;;3.85;3.50;;;14.70;99.90;;;;;;4919229;29;20043;-78
2021/04/30 00:29:01;;;;;;;4.10;3.70;;;14.60;99.90;;;;;;4883588;29;20025;-78
2021/04/30 00:31:27;;;;;;;4.03;3.67;;;14.60;99.90;;;;;;4883465;29;20025;-78
2021/04/30 00:33:52;;;;;;;3.72;3.42;;;14.70;99.90;;;;;;4900133;29;20021;-78
2021/04/30 00:36:18;;;;;;;4.38;4.00;;;14.60;99.90;;;;;;4883448;29;20067;-78
2021/04/30 00:38:44;;;;;;;4.22;3.60;;;14.60;99.90;;;;;;4883116;29;20024;-78
2021/04/30 00:41:10;;;;;;;4.22;3.83;;;14.60;99.90;;;;;;4900109;29;20072;-78
2021/04/30 00:43:35;;;;;;;3.92;3.53;;;14.60;99.90;;;;;;4899918;29;20461;-78
2021/04/30 00:46:01;;;;;;;3.65;3.35;;;14.60;99.90;;;;;;4899889;29;20021;-78
2021/04/30 00:48:27;;;;;;;4.57;3.20;;;14.60;99.90;;;;;;4883244;29;20084;-78
2021/04/30 00:50:53;;;;;;;3.72;3.38;;;14.60;99.90;;;;;;4882962;29;20024;-78
2021/04/30 00:53:19;;;;;;;3.38;3.08;;;14.50;99.90;;;;;;4882983;29;20480;-78
2021/04/30 00:55:45;;;;;;;3.72;3.45;;;14.50;99.90;;;;;;4899821;29;20099;-77
2021/04/30 00:58:11;;;;;;;3.83;3.35;;;14.50;99.90;;;;;;4899688;29;20048;-78
2021/04/30 01:00:37;;;;;;;3.75;3.45;;;14.50;99.90;;;;;;4899764;29;20235;-77
2021/04/30 01:03:07;;;;;;;3.42;3.13;;;14.50;99.90;;;;;;4882905;29;20032;-78
2021/04/30 01:05:33;;;;;;;4.32;3.55;;;14.50;99.90;;;;;;4899486;29;20033;-77
2021/04/30 01:07:59;;;;;;;3.92;3.53;;;14.40;99.90;;;;;;4899558;29;20393;-77
2021/04/30 01:10:24;;;;;;;3.22;2.92;;;14.40;99.90;;;;;;4899692;29;20024;-77
2021/04/30 01:12:51;;;;;;;3.28;2.97;;;14.50;99.90;;;;;;4899487;29;20500;-77
2021/04/30 01:15:18;;;;;;;3.60;3.30;;;14.40;99.90;;;;;;4909486;29;20047;-77
2021/04/30 01:17:45;;;;;;;3.45;3.15;;;14.40;99.90;;;;;;4900803;29;20020;-77
2021/04/30 01:20:13;;;;;;;3.88;3.17;;;14.40;99.90;;;;;;4901330;29;20031;-78
2021/04/30 01:22:44;;;;;;;5.90;2.97;;;14.40;99.90;;;;;;4918078;29;20028;-77
2021/04/30 01:25:25;;;;;;;5.05;2.97;;;14.40;99.90;;;;;;4918155;29;20032;-78
2021/04/30 01:27:52;;;;;;;3.30;3.03;;;14.50;99.90;;;;;;4891635;29;20035;-77
2021/04/30 01:30:25;;;;;;;2.90;2.70;;;14.50;99.90;;;;;;4882469;29;20025;-77
2021/04/30 01:32:51;;;;;;;2.70;2.50;;;14.40;99.90;;;;;;4883112;29;20560;-78
2021/04/30 01:35:22;;;;;;;3.13;2.88;;;14.40;99.90;;;;;;4901035;29;20080;-78
2021/04/30 01:37:49;;;;;;;3.40;2.90;;;14.40;99.90;;;;;;4917796;29;20063;-77
2021/04/30 01:40:17;;;;;;;2.80;2.60;;;14.40;99.90;;;;;;4900643;29;20403;-78
2021/04/30 01:43:06;;;;;;;3.05;2.78;;;14.40;99.90;;;;;;4917913;29;20051;-78
2021/04/30 01:45:37;;;;;;;5.25;2.72;;;14.40;99.90;;;;;;4917711;29;20495;-77
2021/04/30 01:48:07;;;;;;;3.97;2.65;;;14.40;99.90;;;;;;4900827;29;20424;-78
2021/04/30 01:50:33;;;;;;;3.42;2.95;;;14.40;99.90;;;;;;4900807;29;20048;-78
2021/04/30 01:52:58;;;;;;;2.75;2.55;;;14.40;99.90;;;;;;4900877;29;20066;-77
2021/04/30 01:55:26;;;;;;;2.97;2.78;;;14.40;99.90;;;;;;4917665;29;20047;-78
2021/04/30 01:57:52;;;;;;;3.33;2.65;;;14.40;99.90;;;;;;4907936;29;20029;-78
2021/04/30 02:00:26;;;;;;;3.17;2.65;;;14.40;99.90;;;;;;4881915;29;20384;-78
2021/04/30 02:02:53;;;;;;;2.90;2.60;;;14.40;99.90;;;;;;4881741;29;20039;-77
2021/04/30 02:05:21;;;;;;;2.47;2.28;;;14.40;99.90;;;;;;4881677;29;20029;-78
2021/04/30 02:07:46;;;;;;;4.20;2.92;;;14.30;99.90;;;;;;4881546;29;20084;-78
2021/04/30 02:10:21;;;;;;;2.67;2.47;;;14.40;99.90;;;;;;4898569;29;20025;-78
2021/04/30 02:12:50;;;;;;;2.45;2.25;;;14.40;99.90;;;;;;4881656;29;20484;-78
2021/04/30 02:15:18;;;;;;;2.30;2.10;;;14.40;99.90;;;;;;4891156;29;20115;-78
2021/04/30 02:17:44;;;;;;;2.67;2.47;;;14.40;99.90;;;;;;4900362;29;20033;-78
2021/04/30 02:20:11;;;;;;;2.00;1.90;;;14.40;99.90;;;;;;4917408;29;20024;-78
2021/04/30 02:22:38;;;;;;;1.83;1.73;;;14.50;99.90;;;;;;4900449;29;20444;-78
2021/04/30 02:25:06;;;;;;;1.85;1.75;;;14.40;99.90;;;;;;4900255;29;20048;-78
2021/04/30 02:27:32;;;;;;;5.07;2.10;;;14.40;99.90;;;;;;4909423;29;20028;-78
2021/04/30 02:29:57;;;;;;;2.20;2.10;;;14.50;99.90;;;;;;4881379;29;20048;-78
2021/04/30 02:32:23;;;;;;;1.83;1.73;;;14.40;99.90;;;;;;4881551;29;20163;-78
2021/04/30 02:34:52;;;;;;;2.15;2.03;;;14.40;99.90;;;;;;4898398;29;20480;-78
2021/04/30 02:37:22;;;;;;;2.80;2.60;;;14.40;99.90;;;;;;4881519;29;20040;-77
2021/04/30 02:39:48;;;;;;;2.70;2.50;;;14.40;99.90;;;;;;4898329;29;20484;-77
2021/04/30 02:42:13;;;;;;;2.60;2.40;;;14.40;99.90;;;;;;4881380;29;20119;-77
2021/04/30 02:44:39;;;;;;;2.45;2.25;;;14.40;99.90;;;;;;4881357;29;20060;-77
2021/04/30 02:47:05;;;;;;;2.55;2.15;;;14.30;99.90;;;;;;4881273;29;20034;-77
2021/04/30 02:49:44;;;;;;;2.15;2.03;;;14.30;99.90;;;;;;4898084;29;20028;-78
2021/04/30 02:52:11;;;;;;;2.20;2.05;;;14.30;99.90;;;;;;4881276;29;20017;-80
2021/04/30 02:54:37;;;;;;;2.47;2.28;;;14.30;99.90;;;;;;4881347;29;20029;-80
2021/04/30 02:57:04;;;;;;;2.10;1.90;;;14.30;99.90;;;;;;4897735;29;20489;-80
2021/04/30 02:59:31;;;;;;;2.13;2.03;;;14.30;99.90;;;;;;4897750;29;20035;-80
2021/04/30 03:01:56;;;;;;;3.53;2.25;;;14.30;99.90;;;;;;4881003;29;20374;-80
2021/04/30 03:04:23;;;;;;;2.25;2.15;;;14.30;99.90;;;;;;4897621;29;20031;-77
2021/04/30 03:06:49;;;;;;;2.92;2.17;;;14.30;99.90;;;;;;4897799;29;20115;-76
2021/04/30 03:09:15;;;;;;;2.15;2.05;;;14.30;99.90;;;;;;4897617;29;20378;-80
2021/04/30 03:11:41;;;;;;;3.00;2.40;;;14.30;99.90;;;;;;4897735;29;20020;-79
2021/04/30 03:14:07;;;;;;;2.42;2.30;;;14.30;99.90;;;;;;4881754;29;20073;-80
2021/04/30 03:16:33;;;;;;;2.70;2.50;;;14.30;99.90;;;;;;4899580;29;20119;-80
2021/04/30 03:18:59;;;;;;;1.83;1.73;;;14.30;99.90;;;;;;4916424;29;20035;-80
2021/04/30 03:21:24;;;;;;;2.03;1.92;;;14.30;99.90;;;;;;4899604;29;20028;-80
2021/04/30 03:23:50;;;;;;;2.20;2.10;;;14.30;99.90;;;;;;4916263;29;20416;-80
2021/04/30 03:26:16;;;;;;;3.75;2.20;;;14.30;99.90;;;;;;4899251;29;20059;-80
2021/04/30 03:28:42;;;;;;;3.53;1.55;;;14.30;99.90;;;;;;4899368;29;20374;-80
2021/04/30 03:31:08;;;;;;;2.08;1.98;;;14.30;99.90;;;;;;4915098;29;20043;-80
2021/04/30 03:33:34;;;;;;;2.55;2.28;;;14.30;99.90;;;;;;4916339;29;20028;-80
2021/04/30 03:35:59;;;;;;;1.90;1.80;;;14.30;99.90;;;;;;4899494;29;20032;-80
2021/04/30 03:38:25;;;;;;;2.55;2.30;;;14.30;99.90;;;;;;4899153;29;20483;-80
2021/04/30 03:40:51;;;;;;;2.50;2.30;;;14.30;99.90;;;;;;4905364;29;20479;-80
2021/04/30 03:43:16;;;;;;;1.98;1.88;;;14.20;99.90;;;;;;4905541;29;20122;-80
2021/04/30 03:45:42;;;;;;;1.80;1.70;;;14.20;99.90;;;;;;4905606;29;20028;-79
2021/04/30 03:48:08;;;;;;;3.58;1.80;;;14.30;99.90;;;;;;4922487;29;20056;-80
2021/04/30 03:50:34;;;;;;;1.60;1.50;;;14.30;99.90;;;;;;4922503;29;20621;-80
2021/04/30 03:53:00;;;;;;;2.10;2.00;;;14.20;99.90;;;;;;4905474;29;20024;-80
2021/04/30 03:55:29;;;;;;;3.92;2.40;;;14.20;99.90;;;;;;4922441;29;20087;-81
2021/04/30 03:57:54;;;;;;;2.03;1.80;;;14.20;99.90;;;;;;4912390;29;20111;-81
2021/04/30 04:00:20;;;;;;;2.80;2.30;;;14.20;99.90;;;;;;4903615;29;20111;-80
2021/04/30 04:02:47;;;;;;;2.92;2.72;;;14.20;99.90;;;;;;4903559;29;20385;-80
2021/04/30 04:05:13;;;;;;;3.28;2.97;;;14.20;99.90;;;;;;4903512;29;20031;-80
2021/04/30 04:07:39;;;;;;;2.38;2.17;;;14.20;99.90;;;;;;4886476;29;20072;-80
2021/04/30 04:10:06;;;;;;;2.03;1.92;;;14.20;99.90;;;;;;4886659;29;20067;-80
2021/04/30 04:12:31;;;;;;;2.25;2.15;;;14.20;99.90;;;;;;4886595;29;20024;-80
2021/04/30 04:15:00;;;;;;;2.03;1.92;;;14.20;99.90;;;;;;4910805;29;20541;-80
2021/04/30 04:17:28;;;;;;;2.13;2.03;;;14.20;99.90;;;;;;4922111;29;20036;-80
2021/04/30 04:19:57;;;;;;;2.88;2.38;;;14.20;99.90;;;;;;4922347;29;20448;-80
2021/04/30 04:22:25;;;;;;;1.70;1.60;;;14.20;99.90;;;;;;4905278;29;20036;-80
2021/04/30 04:24:51;;;;;;;2.05;1.95;;;14.20;99.90;;;;;;4922168;29;20188;-80
2021/04/30 04:27:17;;;;;;;1.70;1.60;;;14.20;99.90;;;;;;4922123;29;20115;-80
2021/04/30 04:29:43;;;;;;;1.60;1.50;;;14.20;99.90;;;;;;4922320;29;20020;-80
2021/04/30 04:32:09;;;;;;;1.70;1.60;;;14.20;99.90;;;;;;4905260;29;20381;-80
2021/04/30 04:34:34;;;;;;;1.45;1.35;;;14.20;99.90;;;;;;4922136;29;20024;-80
2021/04/30 04:37:00;;;;;;;1.80;1.70;;;14.20;99.90;;;;;;4922107;29;20564;-77
2021/04/30 04:39:26;;;;;;;2.20;2.00;;;14.20;99.90;;;;;;4905182;29;20035;-77
2021/04/30 04:41:52;;;;;;;2.22;2.10;;;14.20;99.90;;;;;;4905032;29;20032;-77
2021/04/30 04:44:18;;;;;;;1.83;1.67;;;14.20;99.90;;;;;;4922201;29;20436;-78
2021/04/30 04:46:44;;;;;;;2.30;2.05;;;14.20;99.90;;;;;;4921903;29;20036;-77
2021/04/30 04:49:10;;;;;;;2.50;2.30;;;14.20;99.90;;;;;;4905028;29;20024;-78
2021/04/30 04:51:36;;;;;;;1.85;1.75;;;14.20;99.90;;;;;;4902140;29;20686;-78
2021/04/30 04:54:02;;;;;;;2.00;1.90;;;14.20;99.90;;;;;;4902217;29;20051;-78
2021/04/30 04:56:28;;;;;;;1.80;1.70;;;14.20;99.90;;;;;;4902079;29;20071;-77
2021/04/30 04:58:54;;;;;;;3.03;1.98;;;14.30;99.90;;;;;;4884276;29;20085;-77
2021/04/30 05:01:21;;;;;;;3.13;2.25;;;14.30;99.90;;;;;;4877297;29;20047;-78
2021/04/30 05:03:47;;;;;;;3.63;2.20;;;14.30;99.90;;;;;;4883057;29;20028;-80
2021/04/30 05:06:12;;;;;;;2.22;1.98;;;14.30;99.90;;;;;;4882781;29;20033;-78
2021/04/30 05:08:38;;;;;;;1.65;1.55;;;14.30;99.90;;;;;;4885261;29;20037;-77
2021/04/30 05:11:04;;;;;;;1.90;1.40;;;14.30;99.90;;;;;;4900017;29;20028;-77
2021/04/30 05:13:34;;;;;;;1.58;1.48;;;14.30;99.90;;;;;;4883052;29;20028;-77
2021/04/30 05:16:01;;;;;;;1.90;1.80;;;14.30;99.90;;;;;;4914057;29;20028;-79
2021/04/30 05:18:27;;;;;;;1.60;1.50;;;14.30;99.90;;;;;;4893345;29;20032;-80
2021/04/30 05:20:53;;;;;;;1.67;1.58;;;14.40;99.90;;;;;;4899644;29;20115;-80
2021/04/30 05:23:19;;;;;;;1.90;1.80;;;14.40;99.90;;;;;;4882396;29;20083;-80
2021/04/30 05:25:47;;;;;;;2.40;2.13;;;14.40;99.90;;;;;;4899082;29;20044;-80
2021/04/30 05:28:13;;;;;;;3.90;1.92;;;14.40;99.90;;;;;;4899294;29;20673;-80
2021/04/30 05:30:38;;;;;;;2.30;1.75;;;14.40;99.90;;;;;;4906177;29;20043;-80
2021/04/30 05:33:04;;;;;;;2.25;1.83;;;14.50;99.90;;;;;;4918113;29;20103;-80
2021/04/30 05:35:30;;;;;;;2.10;1.73;;;14.50;99.90;;;;;;4900930;29;20031;-79
2021/04/30 05:37:56;;;;;;;3.55;1.90;;;14.50;99.90;;;;;;4917971;29;20016;-80
2021/04/30 05:40:23;;;;;;;2.53;2.00;;;14.50;99.90;;;;;;4918149;29;20078;-77
2021/04/30 05:42:48;;;;;;;2.40;2.20;;;14.40;99.90;;;;;;4918008;29;20091;-77
2021/04/30 05:45:15;;;;;;;4.10;1.73;;;14.40;99.90;;;;;;4901341;29;20440;-77
2021/04/30 05:47:40;;;;;;;1.70;1.60;;;14.40;99.90;;;;;;4917464;29;20028;-77
2021/04/30 05:50:07;;;;;;;2.50;2.30;;;14.40;99.90;;;;;;4917876;29;20149;-77
2021/04/30 05:52:33;;;;;;;2.28;2.08;;;14.50;99.90;;;;;;4917734;29;20027;-80
2021/04/30 05:54:59;;;;;;;4.13;1.95;;;14.50;99.90;;;;;;4917787;29;20032;-80
2021/04/30 05:57:25;;;;;;;2.20;1.75;;;14.50;99.90;;;;;;4913169;29;20024;-80
2021/04/30 05:59:50;;;;;;;3.13;2.10;;;14.50;99.90;;;;;;4915066;29;20403;-80
2021/04/30 06:02:16;;;;;;;1.95;1.85;;;14.50;99.90;;;;;;4917716;29;20079;-80
2021/04/30 06:04:42;;;;;;;2.17;1.80;;;14.60;99.90;;;;;;4900906;29;20034;-80
2021/04/30 06:07:08;;;;;;;2.95;1.50;;;14.60;99.90;;;;;;4900283;29;20032;-80
2021/04/30 06:09:36;;;;;;;1.50;1.40;;;14.60;99.90;;;;;;4914988;29;20417;-80
2021/04/30 06:12:02;;;;;;;2.97;1.83;;;14.60;99.90;;;;;;4917689;29;20075;-80
2021/04/30 06:14:33;;;;;;;2.17;2.00;;;14.60;99.90;;;;;;4896830;29;20425;-80
2021/04/30 06:16:59;;;;;;;2.58;1.80;;;14.60;99.90;;;;;;4898422;29;20029;-80
2021/04/30 06:19:25;;;;;;;2.28;2.10;;;14.70;99.90;;;;;;4898527;29;20036;-80
2021/04/30 06:21:51;;;;;;;2.10;1.85;;;14.70;99.90;;;;;;4881846;29;20453;-80
2021/04/30 06:24:17;;;;;;;2.00;1.90;;;14.80;99.90;;;;;;4881658;29;20045;-81
2021/04/30 06:26:43;;;;;;;2.42;2.20;;;14.80;99.90;;;;;;4881556;29;20032;-80
2021/04/30 06:29:09;;;;;;;3.25;1.80;;;14.80;99.90;;;;;;4897273;29;20025;-79
2021/04/30 06:31:36;;;;;;;1.90;1.80;;;14.80;99.90;;;;;;4912722;29;20444;-80
2021/04/30 06:34:02;;;;;;;4.35;1.88;;;14.80;99.90;;;;;;4883710;29;20589;-80
2021/04/30 06:36:28;;;;;;;4.55;1.83;;;14.90;99.90;;;;;;4881503;29;20054;-80
2021/04/30 06:38:54;;;;;;;2.03;1.92;;;14.90;99.90;;;;;;4881429;29;20032;-77
2021/04/30 06:41:19;;;;;;;2.00;1.90;;;15.00;99.90;;;;;;4881696;29;20517;-77
2021/04/30 06:43:45;;;;;;;2.58;2.38;;;15.00;99.90;;;;;;4881574;29;20036;-77
2021/04/30 06:46:11;;;;;;;2.40;2.25;;;15.10;99.90;;;;;;4881353;29;20518;-77
2021/04/30 06:48:37;;;;;;;2.55;2.10;;;15.10;99.90;;;;;;4898082;29;20024;-77
2021/04/30 06:51:03;;;;;;;2.80;2.47;;;15.10;99.90;;;;;;4896956;29;20025;-78
2021/04/30 06:53:29;;;;;;;4.72;2.63;;;15.10;99.90;;;;;;4895061;29;20040;-81
2021/04/30 06:55:55;;;;;;;3.83;3.10;;;15.10;99.90;;;;;;4886024;29;20406;-81
2021/04/30 06:58:20;;;;;;;7.35;3.58;;;15.10;99.90;;;;;;4875019;29;20028;-81
2021/04/30 07:00:46;;;;;;;4.38;3.10;;;15.20;99.90;;;;;;4883437;29;20467;-81
2021/04/30 07:03:12;;;;;;;5.68;3.55;;;15.20;99.90;;;;;;4915826;29;20544;-81
2021/04/30 07:05:38;;;;;;;4.43;4.03;;;15.30;99.90;;;;;;4915700;29;20107;-79
2021/04/30 07:08:05;;;;;;;8.25;4.20;;;15.30;99.90;;;;;;4915570;29;20016;-84
2021/04/30 07:10:31;;;;;;;8.10;4.03;;;15.40;99.90;;;;;;4915732;29;20502;-82
2021/04/30 07:12:57;;;;;;;6.28;5.63;;;15.40;99.90;;;;;;4915726;29;20104;-81
2021/04/30 07:15:23;;;;;;;6.95;5.78;;;15.40;99.90;;;;;;4898278;29;20480;-81
2021/04/30 07:17:49;;;;;;;8.40;6.18;;;15.40;99.90;;;;;;4898490;29;20043;-82
2021/04/30 07:20:14;;;;;;;9.07;6.88;;;15.50;99.90;;;;;;4897471;29;20032;-81
2021/04/30 07:22:40;;;;;;;9.23;6.88;;;15.50;99.90;;;;;;4896230;29;20080;-81
2021/04/30 07:25:07;;;;;;;9.60;6.95;;;15.40;99.90;;;;;;4887488;29;20041;-82
2021/04/30 07:27:36;;;;;;;9.43;6.45;;;15.50;99.90;;;;;;4894351;29;20496;-82
2021/04/30 07:30:02;;;;;;;10.45;7.13;;;15.50;99.90;;;;;;4882299;29;20031;-85
2021/04/30 07:32:30;;;;;;;12.98;8.73;;;15.60;99.90;;;;;;4916312;29;20481;-83
2021/04/30 07:34:56;;;;;;;14.45;9.75;;;15.60;99.90;;;;;;4904254;29;20081;-83
2021/04/30 07:37:21;;;;;;;13.30;8.13;;;15.70;99.90;;;;;;4894238;29;20553;-83
2021/04/30 07:39:47;;;;;;;12.10;8.30;;;15.70;99.90;;;;;;4890751;29;20028;-84
2021/04/30 07:42:13;;;;;;;14.75;9.50;;;15.70;99.90;;;;;;4897444;29;20078;-84
2021/04/30 07:44:39;;;;;;;14.85;9.07;;;15.80;99.90;;;;;;4895138;29;20029;-83
2021/04/30 07:47:05;;;;;;;15.88;10.23;;;15.80;99.90;;;;;;4894269;29;20441;-83
2021/04/30 07:49:31;;;;;;;12.73;8.93;;;15.90;99.90;;;;;;4893382;29;20763;-77
2021/04/30 07:51:57;;;;;;;11.38;8.60;;;15.90;99.90;;;;;;4893680;29;20540;-77
2021/04/30 07:54:23;;;;;;;11.57;8.40;;;16.00;99.90;;;;;;4894102;29;20032;-77
2021/04/30 07:56:50;;;;;;;12.80;9.85;;;16.00;99.90;;;;;;4896524;29;20025;-77
2021/04/30 07:59:17;;;;;;;13.23;8.82;;;16.10;99.90;;;;;;4915985;29;20028;-77
2021/04/30 08:01:42;;;;;;;17.48;10.18;;;16.10;99.90;;;;;;4903498;29;20596;-77
2021/04/30 08:04:08;;;;;;;17.27;10.15;;;16.20;99.90;;;;;;4899010;29;20118;-77
2021/04/30 08:06:34;;;;;;;15.40;9.52;;;16.20;99.90;;;;;;4898789;29;20092;-77
2021/04/30 08:09:00;;;;;;;15.90;10.32;;;16.30;99.90;;;;;;4916035;29;20020;-77
2021/04/30 08:11:26;;;;;;;14.73;9.95;;;16.30;99.90;;;;;;4898871;29;20060;-74
2021/04/30 08:13:52;;;;;;;14.77;10.50;;;16.30;99.90;;;;;;4898716;29;20431;-75
2021/04/30 08:16:18;;;;;;;15.90;10.52;;;16.50;99.90;;;;;;4915916;29;20084;-74
2021/04/30 08:18:43;;;;;;;16.40;9.52;;;16.50;99.90;;;;;;4915946;29;20052;-74
2021/04/30 08:21:09;;;;;;;13.80;9.85;;;16.60;99.90;;;;;;4915801;29;20139;-74
2021/04/30 08:23:35;;;;;;;10.27;7.68;;;16.70;99.90;;;;;;4915811;29;20096;-75
2021/04/30 08:26:04;;;;;;;12.93;6.72;;;16.80;99.90;;;;;;4898907;29;20456;-75
2021/04/30 08:28:29;;;;;;;9.23;6.63;;;16.80;99.90;;;;;;4902036;29;20480;-74
2021/04/30 08:30:56;;;;;;;9.63;7.20;;;16.90;99.90;;;;;;4919272;29;20030;-77
2021/04/30 08:33:26;;;;;;;11.10;7.70;;;16.90;99.90;;;;;;4919313;29;20366;-74
2021/04/30 08:35:56;;;;;;;7.68;6.57;;;17.00;99.90;;;;;;4919347;29;20039;-77
2021/04/30 08:38:22;;;;;;;7.65;6.53;;;17.00;99.90;;;;;;4919118;29;20032;-77
2021/04/30 08:40:48;;;;;;;6.60;5.90;;;17.00;99.90;;;;;;4919034;29;20096;-77
2021/04/30 08:43:17;;;;;;;6.80;5.95;;;17.10;99.90;;;;;;4918992;29;20024;-75
2021/04/30 08:45:43;;;;;;;7.13;5.70;;;17.10;99.90;;;;;;4915772;29;20044;-74
2021/04/30 08:48:11;;;;;;;10.00;5.95;;;17.20;99.90;;;;;;4892581;29;20021;-75
2021/04/30 08:50:37;;;;;;;9.93;6.60;;;17.30;99.90;;;;;;4899568;29;20114;-77
2021/04/30 08:53:05;;;;;;;9.13;6.45;;;17.30;99.90;;;;;;4895509;29;20457;-74
2021/04/30 08:55:33;;;;;;;7.78;5.97;;;17.40;99.90;;;;;;4889043;29;20052;-82
2021/04/30 08:57:59;;;;;;;7.22;5.97;;;17.30;99.90;;;;;;4881298;29;20032;-82
2021/04/30 09:00:27;;;;;;;7.47;6.00;;;17.40;99.90;;;;;;4896838;29;20497;-76
2021/04/30 09:02:54;;;;;;;10.25;6.20;;;17.50;99.90;;;;;;4899577;29;20458;-78
2021/04/30 09:05:34;;;;;;;6.80;6.05;;;17.50;99.90;;;;;;4899778;29;20044;-77
2021/04/30 09:08:03;;;;;;;7.38;6.07;;;17.60;99.90;;;;;;4882332;29;20484;-77
2021/04/30 09:10:37;;;;;;;7.15;6.22;;;17.60;99.90;;;;;;4899259;29;20033;-77
2021/04/30 09:13:16;;;;;;;9.15;6.57;;;17.70;99.90;;;;;;4899700;29;20036;-77
2021/04/30 09:15:44;;;;;;;9.45;6.32;;;17.70;99.90;;;;;;4899827;29;20029;-77
2021/04/30 09:18:20;;;;;;;7.47;5.95;;;17.80;99.90;;;;;;4910585;29;20027;-77
2021/04/30 09:20:48;;;;;;;6.00;5.40;;;17.90;99.90;;;;;;4901316;29;20476;-77
2021/04/30 09:23:40;;;;;;;5.82;5.00;;;17.80;99.90;;;;;;4913206;29;20115;-77
2021/04/30 09:26:22;;;;;;;7.95;5.53;;;17.90;99.90;;;;;;4917721;29;20075;-74
2021/04/30 09:29:00;;;;;;;9.75;5.00;;;17.90;99.90;;;;;;4918591;29;20035;-78
2021/04/30 09:31:42;;;;;;;5.05;4.00;;;17.90;99.90;;;;;;4901346;29;20083;-77
2021/04/30 09:34:29;;;;;;;5.30;4.20;;;18.00;99.90;;;;;;4918418;29;20510;-77
2021/04/30 09:37:03;;;;;;;3.33;2.92;;;18.10;99.90;;;;;;4917757;29;20064;-77
2021/04/30 09:39:30;;;;;;;5.75;4.40;;;18.10;99.90;;;;;;4918423;29;20504;-77
2021/04/30 09:42:10;;;;;;;7.57;3.50;;;18.30;99.90;;;;;;4899324;29;20500;-74
2021/04/30 09:44:41;;;;;;;5.50;2.72;;;18.40;99.90;;;;;;4896549;29;20076;-77
2021/04/30 09:47:22;;;;;;;2.50;2.30;;;18.40;99.90;;;;;;4880058;29;20385;-77
2021/04/30 09:49:50;;;;;;;8.48;3.97;;;18.30;99.90;;;;;;4896583;29;20075;-75
2021/04/30 09:52:27;;;;;;;5.88;4.03;;;18.40;99.90;;;;;;4896394;29;20369;-78
2021/04/30 09:55:01;;;;;;;4.28;3.78;;;18.30;99.90;;;;;;4906645;29;20035;-82
2021/04/30 09:57:31;;;;;;;5.32;3.42;;;18.40;99.90;;;;;;4904919;29;20064;-82
2021/04/30 10:00:25;;;;;;;7.32;3.95;;;18.50;99.90;;;;;;4892746;29;20730;-80
2021/04/30 10:02:50;;;;;;;5.13;3.75;;;18.50;99.90;;;;;;4879859;29;20036;-80
2021/04/30 10:05:22;;;;;;;5.80;4.30;;;18.50;99.90;;;;;;4897339;29;20370;-80
2021/04/30 10:07:48;;;;;;;5.70;4.78;;;18.60;99.90;;;;;;4900513;29;20096;-78
2021/04/30 10:10:25;;;;;;;7.50;4.85;;;18.50;99.90;;;;;;4898202;29;20397;-79
2021/04/30 10:12:57;;;;;;;8.73;5.65;;;18.60;99.90;;;;;;4895740;29;20028;-78
2021/04/30 10:15:23;;;;;;;9.02;4.80;;;18.60;99.90;;;;;;4898636;29;20442;-79
2021/04/30 10:18:00;;;;;;;7.50;5.35;;;18.50;99.90;;;;;;4897197;29;20024;-74
2021/04/30 10:20:26;;;;;;;9.50;5.38;;;18.50;99.90;;;;;;4883337;29;20032;-75
2021/04/30 10:22:52;;;;;;;7.05;4.80;;;18.50;99.90;;;;;;4915336;29;20039;-75
2021/04/30 10:25:19;;;;;;;7.85;4.85;;;18.40;99.90;;;;;;4898164;29;20036;-74
2021/04/30 10:27:52;;;;;;;8.23;4.93;;;18.40;99.90;;;;;;4896076;29;20041;-75
2021/04/30 10:30:24;;;;;;;;;;;18.30;99.90;;;;;;4886347;29;20084;-74
2021/04/30 10:33:01;;;;;;;8.32;4.75;;;18.30;99.90;;;;;;4897386;29;20276;-75
2021/04/30 10:35:33;;;;;;;8.35;4.95;;;18.30;99.90;;;;;;4897856;29;20496;-75
2021/04/30 10:38:08;;;;;;;11.30;5.47;;;18.30;99.90;;;;;;4896435;29;20120;-75
2021/04/30 10:40:34;;;;;;;7.90;5.05;;;18.30;99.90;;;;;;4895362;29;20265;-75
2021/04/30 10:43:21;;;;;;;6.40;5.13;;;18.30;99.90;;;;;;4897046;29;20107;-75
2021/04/30 10:45:58;;;;;;;7.35;5.07;;;18.40;99.90;;;;;;4897216;29;20165;-75
2021/04/30 10:48:24;;;;;;;6.88;5.40;;;18.40;99.90;;;;;;4897258;29;20020;-75
2021/04/30 10:50:50;;;;;;;6.93;5.65;;;18.40;99.90;;;;;;4896221;29;20017;-75
2021/04/30 10:53:30;;;;;;;10.23;5.75;;;18.40;99.90;;;;;;4896745;29;20084;-75
2021/04/30 10:55:55;;;;;;;9.45;5.68;;;18.40;99.90;;;;;;4895650;29;20036;-75
2021/04/30 10:58:53;;;;;;;8.82;5.63;;;18.40;99.90;;;;;;4896065;29;20488;-75
2021/04/30 11:01:30;;;;;;;10.68;6.78;;;18.40;99.90;;;;;;4888296;29;20044;-75
2021/04/30 11:04:12;;;;;;;10.15;6.78;;;18.40;99.90;;;;;;4895513;29;20682;-75
2021/04/30 11:07:06;;;;;;;10.88;7.68;;;18.40;99.90;;;;;;4892781;29;20508;-75
2021/04/30 11:09:39;;;;;;;9.98;7.55;;;18.60;99.90;;;;;;4888159;29;20033;-75
2021/04/30 11:12:17;;;;;;;14.95;8.65;;;18.90;99.90;;;;;;4894152;29;20028;-75
2021/04/30 11:14:57;;;;;;;11.43;8.48;;;19.20;99.90;;;;;;4895954;29;20337;-75
2021/04/30 11:18:01;;;;;;;11.88;7.85;;;19.40;99.90;;;;;;4897053;29;20485;-75
2021/04/30 11:20:32;;;;;;;13.82;9.45;;;19.50;99.90;;;;;;4896313;29;20030;-75
2021/04/30 11:23:18;;;;;;;12.20;8.13;;;19.50;99.90;;;;;;4879341;29;20025;-75
2021/04/30 11:25:59;;;;;;;12.32;9.20;;;19.50;99.90;;;;;;4896408;29;20033;-75
2021/04/30 11:28:45;;;;;;;12.87;8.63;;;19.40;99.90;;;;;;4896033;29;20028;-75
2021/04/30 11:31:16;;;;;;;11.75;8.27;;;19.40;99.90;;;;;;4896138;29;20029;-75
2021/04/30 11:34:04;;;;;;;12.77;8.23;;;19.40;99.90;;;;;;4879664;29;20056;-75
2021/04/30 11:36:31;;;;;;;13.95;9.95;;;19.60;99.90;;;;;;4896707;29;20609;-75
2021/04/30 11:39:12;;;;;;;15.02;8.30;;;19.90;99.90;;;;;;4879851;29;20036;-75
2021/04/30 11:41:40;;;;;;;11.00;8.00;;;20.00;99.90;;;;;;4896872;29;20039;-76
2021/04/30 11:44:06;;;;;;;10.82;7.90;;;20.20;99.90;;;;;;4896791;29;20092;-75
2021/04/30 11:46:32;;;;;;;13.25;7.70;;;20.30;99.90;;;;;;4896632;29;20532;-75
2021/04/30 11:48:58;;;;;;;14.10;8.23;;;20.20;99.90;;;;;;4896466;29;20029;-75
2021/04/30 11:51:23;;;;;;;12.45;7.38;;;20.10;99.90;;;;;;4896789;29;20473;-76
2021/04/30 11:53:56;;;;;;;11.20;7.97;;;20.00;99.90;;;;;;4895755;29;20102;-75
2021/04/30 11:56:30;;;;;;;12.60;8.43;;;20.10;99.90;;;;;;4896074;29;20040;-75
2021/04/30 11:58:56;;;;;;;10.95;7.32;;;20.00;99.90;;;;;;4879406;29;20040;-75
2021/04/30 12:01:24;;;;;;;9.60;7.28;;;20.00;99.90;;;;;;4899020;29;20029;-76
2021/04/30 12:03:55;;;;;;;11.45;7.60;;;20.20;99.90;;;;;;4900138;29;20028;-76
2021/04/30 12:06:24;;;;;;;12.70;8.48;;;20.40;99.90;;;;;;4900142;29;20422;-75
2021/04/30 12:08:51;;;;;;;10.27;7.13;;;20.80;99.90;;;;;;4883721;29;20028;-76
2021/04/30 12:11:27;;;;;;;8.25;5.80;;;20.60;99.90;;;;;;4900566;29;20059;-75
2021/04/30 12:13:56;;;;;;;10.50;6.97;;;20.70;99.90;;;;;;4908113;29;20405;-75
2021/04/30 12:16:22;;;;;;;10.32;6.95;;;20.70;99.90;;;;;;4919147;29;20024;-75
2021/04/30 12:18:49;;;;;;;11.85;5.93;;;20.60;99.90;;;;;;4919239;29;20568;-76
2021/04/30 12:21:30;;;;;;;10.20;6.38;;;20.90;99.90;;;;;;4919337;29;20032;-75
2021/04/30 12:23:57;;;;;;;11.48;7.30;;;21.10;99.90;;;;;;4897091;29;20115;-76
2021/04/30 12:26:30;;;;;;;6.97;5.78;;;21.30;99.90;;;;;;4895833;29;20048;-75
2021/04/30 12:28:57;;;;;;;9.40;6.55;;;21.40;99.90;;;;;;4895992;29;20358;-75
2021/04/30 12:31:24;;;;;;;10.75;6.10;;;21.40;99.90;;;;;;4895230;29;20032;-75
2021/04/30 12:33:52;;;;;;;7.93;6.00;;;21.40;99.90;;;;;;4878413;29;20028;-76
2021/04/30 12:36:22;;;;;;;8.18;6.35;;;21.40;99.90;;;;;;4895940;29;20038;-78
2021/04/30 12:38:54;;;;;;;12.32;7.93;;;21.40;99.90;;;;;;4897060;29;20035;-78
2021/04/30 12:41:23;;;;;;;9.25;6.80;;;21.50;99.90;;;;;;4897896;29;20028;-78
2021/04/30 12:43:50;;;;;;;9.90;6.28;;;21.40;99.50;;;;;;4897056;29;20120;-78
2021/04/30 12:46:22;;;;;;;9.85;6.93;;;21.30;99.90;;;;;;4897156;29;20033;-78
2021/04/30 12:48:51;;;;;;;9.40;6.00;;;21.30;99.90;;;;;;4897630;29;20167;-79
2021/04/30 12:51:23;;;;;;;8.30;5.47;;;21.30;99.90;;;;;;4897614;29;20706;-78
2021/04/30 12:53:49;;;;;;;7.07;5.10;;;21.30;99.90;;;;;;4897587;29;20089;-78